createdAt,value
2024-04-06T00:00:59.243Z,922.00
2024-04-06T00:01:59.227Z,914.00
2024-04-06T00:02:59.195Z,922.00
2024-04-06T00:03:59.204Z,921.00
2024-04-06T00:04:59.208Z,918.00
2024-04-06T00:05:59.215Z,924.00
2024-04-06T00:07:03.122Z,922.00
2024-04-06T00:08:06.087Z,915.00
2024-04-06T00:09:00.219Z,923.00
2024-04-06T00:09:59.213Z,924.00
2024-04-06T00:10:59.217Z,924.00
2024-04-06T00:11:59.220Z,927.00
2024-04-06T00:12:59.221Z,940.00
2024-04-06T00:13:59.243Z,924.00
2024-04-06T00:14:59.234Z,921.00
2024-04-06T00:15:59.248Z,918.00
2024-04-06T00:16:59.290Z,922.00
2024-04-06T00:17:59.364Z,914.00
2024-04-06T00:18:59.514Z,921.00
2024-04-06T00:19:59.564Z,908.00
2024-04-06T00:20:59.666Z,921.00
2024-04-06T00:21:59.765Z,919.00
2024-04-06T00:22:59.873Z,907.00
2024-04-06T00:24:00.002Z,908.00
2024-04-06T00:25:00.066Z,910.00
2024-04-06T00:26:00.181Z,911.00
2024-04-06T00:27:00.286Z,916.00
2024-04-06T00:28:00.386Z,917.00
2024-04-06T00:29:00.538Z,913.00
2024-04-06T00:30:00.625Z,907.00
2024-04-06T00:31:00.688Z,897.00
2024-04-06T00:32:00.844Z,898.00
2024-04-06T00:33:00.905Z,903.00
2024-04-06T00:34:01.019Z,910.00
2024-04-06T00:35:01.122Z,905.00
2024-04-06T00:36:01.226Z,899.00
2024-04-06T00:37:01.333Z,901.00
2024-04-06T00:38:01.440Z,902.00
2024-04-06T00:39:01.552Z,896.00
2024-04-06T00:40:01.678Z,908.00
2024-04-06T00:41:01.790Z,901.00
2024-04-06T00:42:01.839Z,899.00
2024-04-06T00:43:01.964Z,904.00
2024-04-06T00:44:03.972Z,900.00
2024-04-06T00:45:02.148Z,896.00
2024-04-06T00:46:02.178Z,903.00
2024-04-06T00:47:02.243Z,893.00
2024-04-06T00:48:02.273Z,900.00
2024-04-06T00:49:02.327Z,893.00
2024-04-06T00:50:02.393Z,893.00
2024-04-06T00:51:02.498Z,894.00
2024-04-06T00:52:02.607Z,901.00
2024-04-06T00:53:02.694Z,889.00
2024-04-06T00:54:02.805Z,895.00
2024-04-06T00:55:02.899Z,897.00
2024-04-06T00:56:03.008Z,891.00
2024-04-06T00:57:03.100Z,896.00
2024-04-06T00:58:03.215Z,896.00
2024-04-06T00:59:03.326Z,892.00
2024-04-06T01:00:03.412Z,888.00
2024-04-06T01:01:03.523Z,895.00
2024-04-06T01:02:05.582Z,897.00
2024-04-06T01:03:03.662Z,892.00
2024-04-06T01:04:03.710Z,892.00
2024-04-06T01:05:03.780Z,889.00
2024-04-06T01:06:03.888Z,891.00
2024-04-06T01:07:03.979Z,882.00
2024-04-06T01:08:04.113Z,886.00
2024-04-06T01:09:04.184Z,895.00
2024-04-06T01:10:04.308Z,887.00
2024-04-06T01:11:04.378Z,887.00
2024-04-06T01:12:04.479Z,895.00
2024-04-06T01:13:04.647Z,894.00
2024-04-06T01:14:04.691Z,890.00
2024-04-06T01:15:04.808Z,879.00
2024-04-06T01:16:04.875Z,883.00
2024-04-06T01:17:04.979Z,885.00
2024-04-06T01:18:05.081Z,884.00
2024-04-06T01:19:05.196Z,883.00
2024-04-06T01:20:05.273Z,883.00
2024-04-06T01:21:05.358Z,879.00
2024-04-06T01:22:05.467Z,881.00
2024-04-06T01:23:05.547Z,882.00
2024-04-06T01:24:05.685Z,879.00
2024-04-06T01:25:05.772Z,881.00
2024-04-06T01:26:05.866Z,887.00
2024-04-06T01:27:05.968Z,886.00
2024-04-06T01:28:06.076Z,880.00
2024-04-06T01:29:06.187Z,873.00
2024-04-06T01:30:06.267Z,882.00
2024-04-06T01:31:06.346Z,880.00
2024-04-06T01:32:06.459Z,881.00
2024-04-06T01:33:06.565Z,872.00
2024-04-06T01:34:06.670Z,880.00
2024-04-06T01:35:06.784Z,876.00
2024-04-06T01:36:06.856Z,872.00
2024-04-06T01:37:06.947Z,873.00
2024-04-06T01:38:07.067Z,873.00
2024-04-06T01:39:07.175Z,876.00
2024-04-06T01:40:07.264Z,870.00
2024-04-06T01:41:07.391Z,874.00
2024-04-06T01:42:07.472Z,867.00
2024-04-06T01:43:07.563Z,872.00
2024-04-06T01:44:07.664Z,870.00
2024-04-06T01:45:07.769Z,865.00
2024-04-06T01:46:07.857Z,875.00
2024-04-06T01:47:07.961Z,865.00
2024-04-06T01:48:08.062Z,863.00
2024-04-06T01:49:08.165Z,868.00
2024-04-06T01:50:08.247Z,868.00
2024-04-06T01:51:08.356Z,862.00
2024-04-06T01:52:08.442Z,870.00
2024-04-06T01:53:08.547Z,869.00
2024-04-06T01:54:08.667Z,878.00
2024-04-06T01:55:08.737Z,868.00
2024-04-06T01:56:08.829Z,864.00
2024-04-06T01:57:08.917Z,870.00
2024-04-06T01:58:08.999Z,865.00
2024-04-06T01:59:09.095Z,865.00
2024-04-06T02:00:09.202Z,868.00
2024-04-06T02:01:09.294Z,864.00
2024-04-06T02:02:09.375Z,871.00
2024-04-06T02:03:09.491Z,862.00
2024-04-06T02:04:09.562Z,857.00
2024-04-06T02:05:09.646Z,862.00
2024-04-06T02:06:09.735Z,854.00
2024-04-06T02:07:09.825Z,859.00
2024-04-06T02:08:09.928Z,864.00
2024-04-06T02:09:10.020Z,859.00
2024-04-06T02:10:10.092Z,867.00
2024-04-06T02:11:10.204Z,857.00
2024-04-06T02:12:10.290Z,857.00
2024-04-06T02:13:10.391Z,858.00
2024-04-06T02:14:10.494Z,857.00
2024-04-06T02:15:10.594Z,860.00
2024-04-06T02:16:10.689Z,858.00
2024-04-06T02:17:10.755Z,862.00
2024-04-06T02:18:10.872Z,855.00
2024-04-06T02:19:10.943Z,855.00
2024-04-06T02:20:11.046Z,858.00
2024-04-06T02:21:11.149Z,854.00
2024-04-06T02:22:11.227Z,856.00
2024-04-06T02:23:11.352Z,849.00
2024-04-06T02:24:11.432Z,847.00
2024-04-06T02:25:11.611Z,855.00
2024-04-06T02:26:11.619Z,855.00
2024-04-06T02:27:11.714Z,853.00
2024-04-06T02:28:11.823Z,849.00
2024-04-06T02:29:11.911Z,859.00
2024-04-06T02:30:12.032Z,854.00
2024-04-06T02:31:12.109Z,848.00
2024-04-06T02:32:12.187Z,855.00
2024-04-06T02:33:12.298Z,857.00
2024-04-06T02:34:12.411Z,843.00
2024-04-06T02:35:12.520Z,849.00
2024-04-06T02:36:12.606Z,844.00
2024-04-06T02:37:12.701Z,837.00
2024-04-06T02:38:12.834Z,850.00
2024-04-06T02:39:12.909Z,852.00
2024-04-06T02:40:13.012Z,840.00
2024-04-06T02:41:13.122Z,854.00
2024-04-06T02:42:13.213Z,844.00
2024-04-06T02:43:14.238Z,849.00
2024-04-06T02:44:13.451Z,850.00
2024-04-06T02:45:13.361Z,843.00
2024-04-06T02:46:13.507Z,844.00
2024-04-06T02:47:13.464Z,850.00
2024-04-06T02:48:13.503Z,841.00
2024-04-06T02:49:13.496Z,841.00
2024-04-06T02:50:13.568Z,845.00
2024-04-06T02:51:13.648Z,843.00
2024-04-06T02:52:13.760Z,840.00
2024-04-06T02:53:13.873Z,837.00
2024-04-06T02:54:13.978Z,842.00
2024-04-06T02:55:14.034Z,836.00
2024-04-06T02:56:14.148Z,846.00
2024-04-06T02:57:14.222Z,839.00
2024-04-06T02:58:14.297Z,843.00
2024-04-06T02:59:14.413Z,835.00
2024-04-06T03:00:14.493Z,834.00
2024-04-06T03:01:14.587Z,842.00
2024-04-06T03:02:14.676Z,837.00
2024-04-06T03:03:14.755Z,827.00
2024-04-06T03:04:24.877Z,835.00
2024-04-06T03:05:14.872Z,835.00
2024-04-06T03:06:14.850Z,837.00
2024-04-06T03:07:14.835Z,838.00
2024-04-06T03:08:14.842Z,843.00
2024-04-06T03:09:14.858Z,837.00
2024-04-06T03:10:14.872Z,837.00
2024-04-06T03:11:14.867Z,829.00
2024-04-06T03:12:14.870Z,839.00
2024-04-06T03:13:14.877Z,829.00
2024-04-06T03:14:14.893Z,838.00
2024-04-06T03:15:14.893Z,840.00
2024-04-06T03:16:14.870Z,835.00
2024-04-06T03:17:14.884Z,839.00
2024-04-06T03:18:14.880Z,834.00
2024-04-06T03:19:25.669Z,829.00
2024-04-06T03:20:14.871Z,830.00
2024-04-06T03:21:14.879Z,831.00
2024-04-06T03:22:14.900Z,832.00
2024-04-06T03:23:14.873Z,835.00
2024-04-06T03:24:19.897Z,839.00
2024-04-06T03:25:14.876Z,829.00
2024-04-06T03:26:14.912Z,831.00
2024-04-06T03:27:14.873Z,832.00
2024-04-06T03:28:14.874Z,832.00
2024-04-06T03:29:14.885Z,831.00
2024-04-06T03:30:14.886Z,823.00
2024-04-06T03:31:14.908Z,824.00
2024-04-06T03:32:14.904Z,834.00
2024-04-06T03:33:15.002Z,831.00
2024-04-06T03:34:15.074Z,831.00
2024-04-06T03:35:15.135Z,823.00
2024-04-06T03:36:15.242Z,831.00
2024-04-06T03:37:15.328Z,826.00
2024-04-06T03:38:15.400Z,829.00
2024-04-06T03:39:15.470Z,826.00
2024-04-06T03:40:15.545Z,812.00
2024-04-06T03:41:15.658Z,811.00
2024-04-06T03:42:15.738Z,817.00
2024-04-06T03:43:15.812Z,820.00
2024-04-06T03:44:15.981Z,812.00
2024-04-06T03:45:15.995Z,824.00
2024-04-06T03:46:16.146Z,817.00
2024-04-06T03:47:16.212Z,823.00
2024-04-06T03:48:16.346Z,812.00
2024-04-06T03:49:16.465Z,819.00
2024-04-06T03:50:16.531Z,806.00
2024-04-06T03:51:16.620Z,815.00
2024-04-06T03:52:16.728Z,811.00
2024-04-06T03:53:16.834Z,816.00
2024-04-06T03:54:16.945Z,810.00
2024-04-06T03:55:17.050Z,808.00
2024-04-06T03:56:17.135Z,813.00
2024-04-06T03:57:17.243Z,820.00
2024-04-06T03:58:17.359Z,811.00
2024-04-06T03:59:17.491Z,818.00
2024-04-06T04:00:17.581Z,809.00
2024-04-06T04:01:17.700Z,805.00
2024-04-06T04:02:17.816Z,817.00
2024-04-06T04:03:17.932Z,815.00
2024-04-06T04:04:18.039Z,809.00
2024-04-06T04:05:18.149Z,803.00
2024-04-06T04:06:18.252Z,809.00
2024-04-06T04:07:18.351Z,819.00
2024-04-06T04:08:18.437Z,808.00
2024-04-06T04:09:23.566Z,819.00
2024-04-06T04:10:18.552Z,811.00
2024-04-06T04:11:18.536Z,814.00
2024-04-06T04:12:18.552Z,811.00
2024-04-06T04:13:18.547Z,810.00
2024-04-06T04:14:18.578Z,807.00
2024-04-06T04:15:18.566Z,813.00
2024-04-06T04:16:18.565Z,807.00
2024-04-06T04:17:18.666Z,813.00
2024-04-06T04:18:18.746Z,798.00
2024-04-06T04:19:18.908Z,808.00
2024-04-06T04:20:18.965Z,798.00
2024-04-06T04:21:19.052Z,802.00
2024-04-06T04:22:19.160Z,800.00
2024-04-06T04:23:19.246Z,805.00
2024-04-06T04:24:19.408Z,803.00
2024-04-06T04:25:19.468Z,795.00
2024-04-06T04:26:19.562Z,796.00
2024-04-06T04:27:19.666Z,792.00
2024-04-06T04:28:26.912Z,600.00
2024-04-06T04:29:26.888Z,600.00
2024-04-06T04:30:26.916Z,600.00
2024-04-06T04:31:26.906Z,600.00
2024-04-06T04:32:26.907Z,600.00
2024-04-06T04:33:26.915Z,600.00
2024-04-06T04:34:27.002Z,600.00
2024-04-06T04:35:27.076Z,603.00
2024-04-06T04:36:27.202Z,603.00
2024-04-06T04:37:27.276Z,600.00
2024-04-06T04:38:27.369Z,602.00
2024-04-06T04:39:27.458Z,604.00
2024-04-06T04:40:27.537Z,604.00
2024-04-06T04:41:27.680Z,604.00
2024-04-06T04:42:27.731Z,601.00
2024-04-06T04:43:27.828Z,601.00
2024-04-06T04:44:38.267Z,601.00
2024-04-06T04:45:28.924Z,601.00
2024-04-06T04:46:27.900Z,601.00
2024-04-06T04:47:27.928Z,600.00
2024-04-06T04:48:27.900Z,602.00
2024-04-06T04:49:27.910Z,602.00
2024-04-06T04:50:28.017Z,601.00
2024-04-06T04:51:27.921Z,603.00
2024-04-06T04:52:27.936Z,606.00
2024-04-06T04:53:28.071Z,607.00
2024-04-06T04:54:28.149Z,602.00
2024-04-06T04:55:28.220Z,602.00
2024-04-06T04:56:28.298Z,605.00
2024-04-06T04:57:28.360Z,602.00
2024-04-06T04:58:28.479Z,600.00
2024-04-06T04:59:28.577Z,602.00
2024-04-06T05:00:28.678Z,605.00
2024-04-06T05:01:28.722Z,604.00
2024-04-06T05:02:28.864Z,600.00
2024-04-06T05:03:28.887Z,603.00
2024-04-06T05:04:28.996Z,604.00
2024-04-06T05:05:29.097Z,604.00
2024-04-06T05:06:29.159Z,604.00
2024-04-06T05:07:29.255Z,604.00
2024-04-06T05:08:29.380Z,606.00
2024-04-06T05:09:29.425Z,601.00
2024-04-06T05:10:29.521Z,601.00
2024-04-06T05:11:29.602Z,604.00
2024-04-06T05:12:29.699Z,603.00
2024-04-06T05:13:29.785Z,603.00
2024-04-06T05:14:29.955Z,603.00
2024-04-06T05:15:29.965Z,603.00
2024-04-06T05:16:30.033Z,600.00
2024-04-06T05:17:30.285Z,603.00
2024-04-06T05:18:30.226Z,602.00
2024-04-06T05:19:31.013Z,602.00
2024-04-06T05:20:30.376Z,603.00
2024-04-06T05:21:30.340Z,607.00
2024-04-06T05:22:30.346Z,604.00
2024-04-06T05:23:30.389Z,607.00
2024-04-06T05:24:35.425Z,604.00
2024-04-06T05:25:30.406Z,604.00
2024-04-06T05:26:30.435Z,605.00
2024-04-06T05:27:30.433Z,605.00
2024-04-06T05:28:30.445Z,603.00
2024-04-06T05:29:35.519Z,602.00
2024-04-06T05:30:30.436Z,604.00
2024-04-06T05:31:30.447Z,604.00
2024-04-06T05:32:30.533Z,605.00
2024-04-06T05:33:30.457Z,606.00
2024-04-06T05:34:30.471Z,599.00
2024-04-06T05:35:30.515Z,609.00
2024-04-06T05:36:30.542Z,606.00
2024-04-06T05:37:30.625Z,604.00
2024-04-06T05:38:30.754Z,606.00
2024-04-06T05:39:30.804Z,606.00
2024-04-06T05:40:30.942Z,604.00
2024-04-06T05:41:30.974Z,602.00
2024-04-06T05:42:31.028Z,603.00
2024-04-06T05:43:31.140Z,600.00
2024-04-06T05:44:31.300Z,608.00
2024-04-06T05:45:31.264Z,602.00
2024-04-06T05:46:31.376Z,602.00
2024-04-06T05:47:31.511Z,601.00
2024-04-06T05:48:31.489Z,602.00
2024-04-06T05:49:36.618Z,600.00
2024-04-06T05:50:31.592Z,600.00
2024-04-06T05:51:31.591Z,600.00
2024-04-06T05:52:31.616Z,601.00
2024-04-06T05:53:31.613Z,602.00
2024-04-06T05:54:31.583Z,605.00
2024-04-06T05:55:31.592Z,600.00
2024-04-06T05:56:31.655Z,605.00
2024-04-06T05:57:31.720Z,604.00
2024-04-06T05:58:35.129Z,602.00
2024-04-06T05:59:31.859Z,603.00
2024-04-06T06:00:31.844Z,604.00
2024-04-06T06:01:31.784Z,605.00
2024-04-06T06:02:31.821Z,599.00
2024-04-06T06:03:31.863Z,607.00
2024-04-06T06:04:31.811Z,605.00
2024-04-06T06:05:31.864Z,607.00
2024-04-06T06:06:31.808Z,606.00
2024-04-06T06:07:31.813Z,605.00
2024-04-06T06:08:31.858Z,604.00
2024-04-06T06:09:31.802Z,604.00
2024-04-06T06:10:31.834Z,603.00
2024-04-06T06:11:31.817Z,605.00
2024-04-06T06:12:31.817Z,600.00
2024-04-06T06:13:31.861Z,603.00
2024-04-06T06:14:31.827Z,603.00
2024-04-06T06:15:31.831Z,602.00
2024-04-06T06:16:31.820Z,606.00
2024-04-06T06:17:31.866Z,607.00
2024-04-06T06:18:31.808Z,606.00
2024-04-06T06:19:31.810Z,605.00
2024-04-06T06:20:31.832Z,603.00
2024-04-06T06:21:31.824Z,603.00
2024-04-06T06:22:31.832Z,606.00
2024-04-06T06:23:31.820Z,606.00
2024-04-06T06:24:31.824Z,602.00
2024-04-06T06:25:31.812Z,603.00
2024-04-06T06:26:31.816Z,602.00
2024-04-06T06:27:31.817Z,606.00
2024-04-06T06:28:31.855Z,604.00
2024-04-06T06:29:31.851Z,600.00
2024-04-06T06:30:31.833Z,602.00
2024-04-06T06:31:34.801Z,604.00
2024-04-06T06:32:31.887Z,603.00
2024-04-06T06:33:31.847Z,607.00
2024-04-06T06:34:31.832Z,602.00
2024-04-06T06:35:31.858Z,606.00
2024-04-06T06:38:31.894Z,606.00
2024-04-06T06:41:31.860Z,607.00
2024-04-06T06:42:31.842Z,608.00
2024-04-06T06:43:31.851Z,607.00
2024-04-06T06:44:31.914Z,608.00
2024-04-06T06:45:31.893Z,609.00
2024-04-06T06:46:31.872Z,606.00
2024-04-06T06:47:31.926Z,607.00
2024-04-06T06:48:31.883Z,605.00
2024-04-06T06:49:31.898Z,602.00
2024-04-06T06:50:31.897Z,606.00
2024-04-06T06:51:31.883Z,602.00
2024-04-06T06:52:31.878Z,603.00
2024-04-06T06:53:31.924Z,603.00
2024-04-06T06:54:31.905Z,602.00
2024-04-06T06:55:31.904Z,604.00
2024-04-06T06:56:31.933Z,603.00
2024-04-06T06:57:31.908Z,605.00
2024-04-06T06:58:31.887Z,603.00
2024-04-06T07:00:31.876Z,603.00
2024-04-06T07:01:31.875Z,604.00
2024-04-06T07:02:31.885Z,604.00
2024-04-06T07:03:31.893Z,605.00
2024-04-06T07:04:31.881Z,603.00
2024-04-06T07:05:31.898Z,606.00
2024-04-06T07:07:31.903Z,602.00
2024-04-06T07:08:31.907Z,602.00
2024-04-06T07:09:31.909Z,601.00
2024-04-06T07:10:31.935Z,602.00
2024-04-06T07:11:31.932Z,602.00
2024-04-06T07:12:31.920Z,603.00
2024-04-06T07:13:31.958Z,600.00
2024-04-06T07:14:31.931Z,603.00
2024-04-06T07:15:31.947Z,604.00
2024-04-06T07:16:31.956Z,606.00
2024-04-06T07:17:31.950Z,604.00
2024-04-06T07:18:31.922Z,605.00
2024-04-06T07:19:31.924Z,605.00
2024-04-06T07:20:31.940Z,605.00
2024-04-06T07:21:31.937Z,606.00
2024-04-06T07:22:31.917Z,605.00
2024-04-06T07:23:31.924Z,605.00
2024-04-06T07:24:31.942Z,605.00
2024-04-06T07:25:31.940Z,601.00
2024-04-06T07:26:31.947Z,601.00
2024-04-06T07:27:31.947Z,602.00
2024-04-06T07:28:31.953Z,607.00
2024-04-06T07:29:31.948Z,602.00
2024-04-06T07:30:32.073Z,604.00
2024-04-06T07:31:31.939Z,600.00
2024-04-06T07:32:31.966Z,600.00
2024-04-06T07:33:31.967Z,600.00
2024-04-06T07:34:31.974Z,608.00
2024-04-06T07:35:31.969Z,607.00
2024-04-06T07:36:31.942Z,607.00
2024-04-06T07:37:31.944Z,605.00
2024-04-06T07:38:31.999Z,607.00
2024-04-06T07:39:32.955Z,607.00
2024-04-06T07:40:31.955Z,607.00
2024-04-06T07:41:31.969Z,607.00
2024-04-06T07:42:31.973Z,604.00
2024-04-06T07:43:31.963Z,609.00
2024-04-06T07:44:31.975Z,605.00
2024-04-06T07:45:31.967Z,606.00
2024-04-06T07:46:31.966Z,600.00
2024-04-06T07:47:32.017Z,608.00
2024-04-06T07:48:31.954Z,606.00
2024-04-06T07:49:31.963Z,606.00
2024-04-06T07:50:31.973Z,607.00
2024-04-06T07:51:31.982Z,602.00
2024-04-06T07:52:31.960Z,600.00
2024-04-06T07:53:31.994Z,603.00
2024-04-06T07:54:31.959Z,607.00
2024-04-06T07:55:31.983Z,604.00
2024-04-06T07:56:31.980Z,603.00
2024-04-06T07:57:32.056Z,605.00
2024-04-06T07:58:32.203Z,605.00
2024-04-06T07:59:32.217Z,607.00
2024-04-06T08:00:32.317Z,600.00
2024-04-06T08:01:32.367Z,602.00
2024-04-06T08:02:32.427Z,606.00
2024-04-06T08:03:32.534Z,603.00
2024-04-06T08:04:32.638Z,605.00
2024-04-06T08:05:32.726Z,605.00
2024-04-06T08:06:32.826Z,608.00
2024-04-06T08:07:32.865Z,604.00
2024-04-06T08:08:32.968Z,604.00
2024-04-06T08:09:33.079Z,604.00
2024-04-06T08:10:33.127Z,603.00
2024-04-06T08:11:33.226Z,609.00
2024-04-06T08:12:33.310Z,606.00
2024-04-06T08:13:33.388Z,605.00
2024-04-06T08:14:33.458Z,605.00
2024-04-06T08:15:33.536Z,607.00
2024-04-06T08:16:33.620Z,603.00
2024-04-06T08:17:33.755Z,603.00
2024-04-06T08:18:33.799Z,604.00
2024-04-06T08:19:33.902Z,604.00
2024-04-06T08:20:33.987Z,605.00
2024-04-06T08:21:34.089Z,605.00
2024-04-06T08:22:34.164Z,602.00
2024-04-06T08:23:34.241Z,604.00
2024-04-06T08:24:34.326Z,603.00
2024-04-06T08:25:34.415Z,605.00
2024-04-06T08:26:34.499Z,605.00
2024-04-06T08:27:34.583Z,606.00
2024-04-06T08:28:34.647Z,601.00
2024-04-06T08:29:34.734Z,605.00
2024-04-06T08:30:34.804Z,604.00
2024-04-06T08:31:34.909Z,602.00
2024-04-06T08:32:34.998Z,606.00
2024-04-06T08:33:35.102Z,603.00
2024-04-06T08:34:35.171Z,601.00
2024-04-06T08:35:35.258Z,605.00
2024-04-06T08:36:35.316Z,600.00
2024-04-06T08:37:35.420Z,604.00
2024-04-06T08:38:35.538Z,602.00
2024-04-06T08:39:35.622Z,603.00
2024-04-06T08:40:35.745Z,603.00
2024-04-06T08:41:35.793Z,604.00
2024-04-06T08:42:35.903Z,604.00
2024-04-06T08:43:36.018Z,602.00
2024-04-06T08:44:36.122Z,606.00
2024-04-06T08:45:36.165Z,601.00
2024-04-06T08:46:36.239Z,604.00
2024-04-06T08:47:36.325Z,606.00
2024-04-06T08:48:36.396Z,606.00
2024-04-06T08:49:36.510Z,603.00
2024-04-06T08:50:36.579Z,601.00
2024-04-06T08:51:36.653Z,604.00
2024-04-06T08:52:36.726Z,603.00
2024-04-06T08:53:36.840Z,600.00
2024-04-06T08:54:36.908Z,604.00
2024-04-06T08:55:37.029Z,601.00
2024-04-06T08:56:37.104Z,602.00
2024-04-06T08:57:37.211Z,600.00
2024-04-06T08:58:44.426Z,600.00
2024-04-06T08:59:44.435Z,600.00
2024-04-06T09:00:44.433Z,600.00
2024-04-06T09:01:44.428Z,600.00
2024-04-06T09:02:44.434Z,600.00
2024-04-06T09:03:44.459Z,603.00
2024-04-06T09:04:44.451Z,601.00
2024-04-06T09:05:44.458Z,600.00
2024-04-06T09:06:44.443Z,600.00
2024-04-06T09:07:44.440Z,601.00
2024-04-06T09:08:44.453Z,604.00
2024-04-06T09:09:44.454Z,603.00
2024-04-06T09:10:44.470Z,605.00
2024-04-06T09:11:44.474Z,600.00
2024-04-06T09:12:44.485Z,602.00
2024-04-06T09:13:44.575Z,600.00
2024-04-06T09:14:44.452Z,600.00
2024-04-06T09:15:44.460Z,605.00
2024-04-06T09:16:44.466Z,604.00
2024-04-06T09:17:44.470Z,601.00
2024-04-06T09:18:44.466Z,604.00
2024-04-06T09:19:44.459Z,601.00
2024-04-06T09:20:44.481Z,602.00
2024-04-06T09:21:44.465Z,600.00
2024-04-06T09:22:44.540Z,605.00
2024-04-06T09:23:44.612Z,604.00
2024-04-06T09:24:44.752Z,601.00
2024-04-06T09:25:44.852Z,606.00
2024-04-06T09:26:44.942Z,607.00
2024-04-06T09:27:45.083Z,603.00
2024-04-06T09:28:45.175Z,604.00
2024-04-06T09:29:45.269Z,604.00
2024-04-06T09:30:45.372Z,604.00
2024-04-06T09:31:45.453Z,606.00
2024-04-06T09:32:45.561Z,603.00
2024-04-06T09:33:46.543Z,605.00
2024-04-06T09:34:45.778Z,603.00
2024-04-06T09:35:46.778Z,603.00
2024-04-06T09:36:45.794Z,603.00
2024-04-06T09:37:45.784Z,604.00
2024-04-06T09:38:45.786Z,604.00
2024-04-06T09:39:45.827Z,605.00
2024-04-06T09:40:45.798Z,605.00
2024-04-06T09:41:45.789Z,602.00
2024-04-06T09:42:45.823Z,607.00
2024-04-06T09:43:45.843Z,605.00
2024-04-06T09:44:45.949Z,601.00
2024-04-06T09:45:46.070Z,606.00
2024-04-06T09:46:46.204Z,603.00
2024-04-06T09:47:46.281Z,604.00
2024-04-06T09:48:46.395Z,605.00
2024-04-06T09:49:46.496Z,603.00
2024-04-06T09:50:46.605Z,602.00
2024-04-06T09:51:46.719Z,606.00
2024-04-06T09:52:46.826Z,600.00
2024-04-06T09:53:46.945Z,603.00
2024-04-06T09:54:47.044Z,603.00
2024-04-06T09:55:47.157Z,606.00
2024-04-06T09:56:47.262Z,603.00
2024-04-06T09:57:47.370Z,603.00
2024-04-06T09:58:47.475Z,601.00
2024-04-06T09:59:47.590Z,605.00
2024-04-06T10:00:47.696Z,604.00
2024-04-06T10:01:47.808Z,603.00
2024-04-06T10:02:47.919Z,604.00
2024-04-06T10:03:48.069Z,606.00
2024-04-06T10:04:48.157Z,602.00
2024-04-06T10:05:48.307Z,606.00
2024-04-06T10:06:48.381Z,605.00
2024-04-06T10:07:48.497Z,602.00
2024-04-06T10:08:48.614Z,605.00
2024-04-06T10:09:48.712Z,603.00
2024-04-06T10:10:48.838Z,604.00
2024-04-06T10:11:48.937Z,600.00
2024-04-06T10:12:49.042Z,602.00
2024-04-06T10:13:49.150Z,605.00
2024-04-06T10:14:49.270Z,603.00
2024-04-06T10:15:49.417Z,603.00
2024-04-06T10:16:49.511Z,606.00
2024-04-06T10:17:49.641Z,604.00
2024-04-06T10:18:49.768Z,603.00
2024-04-06T10:19:49.880Z,603.00
2024-04-06T10:20:49.989Z,605.00
2024-04-06T10:21:50.122Z,604.00
2024-04-06T10:22:50.201Z,602.00
2024-04-06T10:23:50.343Z,604.00
2024-04-06T10:24:50.454Z,603.00
2024-04-06T10:25:50.598Z,601.00
2024-04-06T10:26:50.711Z,604.00
2024-04-06T10:27:50.803Z,602.00
2024-04-06T10:28:50.893Z,602.00
2024-04-06T10:29:50.982Z,605.00
2024-04-06T10:30:51.092Z,604.00
2024-04-06T10:31:51.281Z,603.00
2024-04-06T10:32:51.316Z,602.00
2024-04-06T10:33:51.417Z,604.00
2024-04-06T10:34:51.548Z,609.00
2024-04-06T10:35:51.640Z,607.00
2024-04-06T10:36:51.756Z,602.00
2024-04-06T10:37:51.860Z,607.00
2024-04-06T10:38:51.971Z,604.00
2024-04-06T10:39:52.077Z,603.00
2024-04-06T10:40:52.209Z,604.00
2024-04-06T10:41:52.326Z,600.00
2024-04-06T10:42:52.440Z,605.00
2024-04-06T10:43:52.540Z,602.00
2024-04-06T10:44:52.654Z,602.00
2024-04-06T10:45:52.754Z,601.00
2024-04-06T10:46:52.888Z,601.00
2024-04-06T10:47:52.997Z,604.00
2024-04-06T10:48:53.092Z,604.00
2024-04-06T10:49:53.200Z,603.00
2024-04-06T10:50:53.309Z,605.00
2024-04-06T10:51:53.429Z,605.00
2024-04-06T10:52:53.522Z,606.00
2024-04-06T10:53:53.630Z,606.00
2024-04-06T10:54:53.745Z,606.00
2024-04-06T10:55:53.842Z,603.00
2024-04-06T10:56:53.954Z,601.00
2024-04-06T10:57:54.063Z,602.00
2024-04-06T10:58:54.176Z,605.00
2024-04-06T10:59:54.284Z,601.00
2024-04-06T11:00:54.414Z,605.00
2024-04-06T11:01:54.480Z,603.00
2024-04-06T11:02:54.604Z,600.00
2024-04-06T11:03:54.700Z,604.00
2024-04-06T11:04:54.791Z,602.00
2024-04-06T11:05:54.918Z,604.00
2024-04-06T11:06:55.008Z,605.00
2024-04-06T11:07:55.115Z,603.00
2024-04-06T11:08:55.209Z,601.00
2024-04-06T11:09:55.319Z,601.00
2024-04-06T11:10:55.448Z,602.00
2024-04-06T11:11:55.542Z,604.00
2024-04-06T11:12:55.663Z,607.00
2024-04-06T11:13:55.736Z,605.00
2024-04-06T11:14:55.827Z,602.00
2024-04-06T11:15:55.987Z,607.00
2024-04-06T11:16:56.056Z,605.00
2024-04-06T11:17:56.138Z,604.00
2024-04-06T11:18:56.234Z,606.00
2024-04-06T11:19:56.307Z,603.00
2024-04-06T11:20:56.398Z,605.00
2024-04-06T11:21:56.508Z,606.00
2024-04-06T11:22:56.590Z,602.00
2024-04-06T11:23:56.677Z,604.00
2024-04-06T11:24:56.754Z,605.00
2024-04-06T11:25:56.879Z,604.00
2024-04-06T11:26:56.956Z,603.00
2024-04-06T11:27:57.056Z,602.00
2024-04-06T11:28:57.128Z,603.00
2024-04-06T11:29:57.219Z,603.00
2024-04-06T11:30:57.301Z,605.00
2024-04-06T11:31:57.381Z,603.00
2024-04-06T11:32:57.454Z,600.00
2024-04-06T11:33:57.547Z,606.00
2024-04-06T11:34:57.627Z,604.00
2024-04-06T11:35:57.731Z,601.00
2024-04-06T11:36:57.849Z,602.00
2024-04-06T11:37:57.848Z,603.00
2024-04-06T11:38:57.939Z,603.00
2024-04-06T11:39:58.025Z,600.00
2024-04-06T11:40:58.078Z,606.00
2024-04-06T11:41:58.153Z,605.00
2024-04-06T11:42:58.226Z,600.00
2024-04-06T11:43:58.280Z,605.00
2024-04-06T11:44:58.352Z,606.00
2024-04-06T11:45:58.447Z,604.00
2024-04-06T11:46:58.558Z,602.00
2024-04-06T11:47:58.551Z,603.00
2024-04-06T11:48:58.616Z,604.00
2024-04-06T11:49:58.683Z,602.00
2024-04-06T11:50:58.736Z,603.00
2024-04-06T11:51:58.800Z,600.00
2024-04-06T11:52:58.838Z,601.00
2024-04-06T11:53:58.915Z,603.00
2024-04-06T11:54:58.975Z,605.00
2024-04-06T11:55:59.027Z,600.00
2024-04-06T11:56:59.082Z,601.00
2024-04-06T11:57:59.147Z,600.00
2024-04-06T11:58:59.199Z,604.00
2024-04-06T11:59:59.275Z,603.00
2024-04-06T12:00:59.365Z,603.00
2024-04-06T12:01:59.445Z,603.00
2024-04-06T12:02:59.488Z,601.00
2024-04-06T12:03:59.579Z,602.00
2024-04-06T12:04:59.636Z,602.00
2024-04-06T12:05:59.723Z,601.00
2024-04-06T12:06:59.790Z,606.00
2024-04-06T12:07:59.857Z,605.00
2024-04-06T12:08:59.933Z,601.00
2024-04-06T12:10:00.018Z,604.00
2024-04-06T12:11:00.109Z,600.00
2024-04-06T12:12:00.204Z,603.00
2024-04-06T12:13:00.255Z,603.00
2024-04-06T12:14:00.352Z,600.00
2024-04-06T12:15:00.418Z,600.00
2024-04-06T12:16:00.558Z,603.00
2024-04-06T12:17:00.602Z,603.00
2024-04-06T12:18:00.683Z,606.00
2024-04-06T12:19:00.805Z,603.00
2024-04-06T12:20:00.906Z,601.00
2024-04-06T12:21:00.977Z,607.00
2024-04-06T12:22:01.594Z,603.00
2024-04-06T12:23:01.103Z,603.00
2024-04-06T12:24:02.104Z,602.00
2024-04-06T12:25:01.174Z,601.00
2024-04-06T12:26:01.236Z,601.00
2024-04-06T12:27:01.294Z,604.00
2024-04-06T12:28:01.346Z,601.00
2024-04-06T12:29:01.378Z,603.00
2024-04-06T12:30:01.436Z,602.00
2024-04-06T12:31:01.476Z,603.00
2024-04-06T12:32:01.564Z,601.00
2024-04-06T12:33:01.659Z,602.00
2024-04-06T12:34:01.744Z,603.00
2024-04-06T12:35:01.825Z,601.00
2024-04-06T12:36:01.936Z,603.00